Latest Weather Observations for Cobar

IDN60801

Issued at 9:02 pm EDT Monday 5 December 2016 (issued every 30 minutes, with the page automatically refreshed every 10 minutes)

About weather observations | Map of weather stations | Latest weather observations for NSW | Other Formats
Station Details ID: 048027 Name: COBAR MO Lat: -31.48 Lon: 145.83 Height: 260.0 m
Data from the previous 72 hours. | See also: Recent months at Cobar
Date/Time
EDT
Temp
°C
App
Temp
°C
Dew
Point
°C
Rel
Hum
%
Delta-T
°C
Wind Press
QNH
hPa
Press
MSL
hPa
Rain since
9am
mm
Dir  Spd
km/h
Gust
km/h
Spd
kts
Gust
kts
05/09:00pm 25.1 - - - - SW 9 19 5 10 1011.6 1010.2 1.0
05/08:30pm 24.8 - - - - SSW 11 15 6 8 1011.7 1010.3 1.0
05/08:00pm 25.1 - - - - S 13 19 7 10 1011.3 1009.9 1.0
05/07:30pm 26.3 - - - - SW 15 20 8 11 1011.5 1010.1 0.6
05/07:00pm 27.0 - - - - SW 15 20 8 11 1011.1 1009.7 0.6
05/06:30pm 27.7 - - - - S 13 19 7 10 1009.7 1008.2 0.6
05/06:00pm 27.5 - - - - S 9 19 5 10 1009.9 1008.4 0.6
05/05:30pm 25.9 - - - - S 13 19 7 10 1009.7 1008.2 0.6
05/05:00pm 24.9 - - - - SSW 17 26 9 14 1009.5 1008.0 0.6
05/04:51pm 24.6 - - - - SW 20 32 11 17 1009.7 1008.2 0.6
05/04:42pm 24.1 - - - - WSW 22 41 12 22 1009.8 1008.3 0.6
05/04:30pm 26.4 - - - - W 39 78 21 42 1009.5 1008.0 0.0
05/04:26pm 29.4 - - - - W 30 78 16 42 1009.1 1007.6 0.0
05/04:25pm 32.8 - - - - W 26 78 14 42 1009.0 1007.5 0.0
05/04:00pm 36.0 - - - - W 19 26 10 14 1008.0 1006.6 0.0
05/03:30pm 36.5 - - - - W 22 33 12 18 1008.4 1006.9 0.0
05/03:00pm 36.9 - - - - W 19 32 10 17 1008.7 1007.2 0.0
05/02:30pm 38.5 - - - - NW 19 33 10 18 1008.9 1007.4 0.0
05/02:00pm 37.9 - - - - NW 17 32 9 17 1009.1 1007.6 0.0
05/01:30pm 37.1 - - - - WNW 15 20 8 11 1009.6 1008.1 0.0
05/01:00pm 35.2 - - - - WNW 9 15 5 8 1009.8 1008.3 0.0
05/12:30pm 35.2 - - - - SW 7 11 4 6 1009.9 1008.4 0.0
05/12:00pm 35.3 - - - - SE 7 13 4 7 1010.2 1008.7 0.0
05/11:30am 34.1 - - - - S 11 19 6 10 1010.6 1009.1 0.0
05/11:00am 33.4 - - - - W 11 17 6 9 1010.8 1009.3 0.0
05/10:30am 32.3 - - - - W 7 11 4 6 1010.9 1009.4 0.0
05/10:00am 31.8 - - - - NW 2 7 1 4 1010.7 1009.2 0.0
05/09:30am 31.0 - - - - CALM 0 0 0 0 1010.8 1009.3 0.0
05/09:00am 30.4 - - - - WNW 2 6 1 3 1010.6 1009.1 0.0
05/08:30am 29.4 - - - - NW 6 7 3 4 1010.5 1009.0 0.0
05/08:00am 28.4 - - - - NNW 6 9 3 5 1010.3 1008.8 0.0
05/07:30am 29.0 - - - - W 9 11 5 6 1010.0 1008.5 0.0
05/07:00am 27.0 - - - - W 7 11 4 6 1009.6 1008.1 0.0
05/06:30am 27.3 - - - - WSW 9 11 5 6 1009.4 1007.9 0.0
05/06:00am 27.3 - - - - W 9 11 5 6 1009.1 1007.6 0.0
05/05:30am 28.2 - - - - W 11 15 6 8 1008.8 1007.3 0.0
05/05:00am 28.1 - - - - W 9 13 5 7 1008.2 1006.8 0.0
05/04:30am 28.4 - - - - WNW 6 7 3 4 1008.0 1006.6 0.0
05/04:00am 28.9 - - - - WNW 7 11 4 6 1007.9 1006.5 0.0
05/03:30am 29.9 - - - - NNW 17 20 9 11 1007.9 1006.5 0.0
05/03:00am 30.8 - - - - NW 28 48 15 26 1008.2 1006.8 0.0
05/02:57am 30.8 - - - - NW 30 48 16 26 1008.2 1006.8 0.0
05/02:52am 31.0 - - - - NW 26 48 14 26 1008.5 1007.0 0.0
05/02:30am 30.5 - - - - NW 13 17 7 9 1008.4 1006.9 0.0
05/02:00am 30.5 - - - - NNW 13 17 7 9 1008.0 1006.6 0.0
05/01:30am 31.1 - - - - NNW 17 30 9 16 1008.4 1006.9 0.0
05/01:00am 29.1 - - - - N 9 13 5 7 1008.7 1007.2 0.0
05/12:30am 30.1 - - - - SSW 7 11 4 6 1008.1 1006.7 0.0
05/12:00am 30.2 - - - - CALM 0 4 0 2 1008.2 1006.8 0.0
 
Date/Time
EDT
Temp
°C
App
Temp
°C
Dew
Point
°C
Rel
Hum
%
Delta-T
°C
Wind Press
QNH
hPa
Press
MSL
hPa
Rain since
9am
mm
Dir  Spd
km/h
Gust
km/h
Spd
kts
Gust
kts
04/11:30pm 30.9 - - - - NW 6 15 3 8 1008.4 1006.9 0.0
04/11:00pm 30.6 - - - - WSW 11 19 6 10 1008.8 1007.3 0.0
04/10:30pm 32.3 - - - - W 28 44 15 24 1009.4 1007.9 0.0
04/10:28pm 33.2 - - - - W 24 44 13 24 1009.5 1008.0 0.0
04/10:22pm 34.3 - - - - W 15 24 8 13 1009.0 1007.5 0.0
04/10:00pm 34.6 - - - - S 7 13 4 7 1006.8 1005.3 0.0
04/09:30pm 34.4 - - - - NW 9 22 5 12 1007.7 1006.3 0.0
04/09:00pm 35.8 - - - - SW 11 15 6 8 1006.8 1005.3 0.0
04/08:41pm 36.7 - - - - W 13 22 7 12 1006.6 1005.1 0.0
04/08:38pm 36.5 - - - - WNW 19 52 10 28 1006.8 1005.3 0.0
04/08:30pm 36.5 - - - - WNW 32 57 17 31 1007.0 1005.5 0.0
04/08:29pm 36.5 - - - - NW 33 57 18 31 1007.1 1005.6 0.0
04/08:22pm 37.0 - - - - NNW 20 54 11 29 1007.0 1005.5 0.0
04/08:21pm 37.2 - - - - NNW 19 54 10 29 1006.8 1005.3 0.0
04/08:00pm 37.2 - - - - N 11 15 6 8 1005.7 1004.2 0.0
04/07:30pm 38.0 - - - - NNE 11 15 6 8 1005.4 1003.9 0.0
04/07:00pm 38.5 - - - - N 11 15 6 8 1005.4 1003.9 0.0
04/06:30pm 39.3 - - - - NNW 15 20 8 11 1005.4 1003.9 0.0
04/06:00pm 39.6 - - - - N 11 20 6 11 1005.7 1004.2 0.0
04/05:30pm 40.1 - - - - N 13 24 7 13 1006.2 1004.7 0.0
04/05:00pm 40.5 - - - - NNW 13 22 7 12 1006.7 1005.2 0.0
04/04:30pm 39.6 - - - - NNW 15 28 8 15 1007.1 1005.6 0.0
04/04:00pm 39.4 - - - - NNW 7 11 4 6 1007.4 1005.9 0.0
04/03:30pm 39.5 - - - - NW 15 24 8 13 1007.8 1006.4 0.0
04/03:00pm 39.7 - - - - NNE 19 28 10 15 1008.2 1006.8 0.0
04/02:30pm 38.6 - - - - N 19 28 10 15 1008.7 1007.2 0.0
04/02:00pm 39.0 - - - - N 20 32 11 17 1009.1 1007.6 0.0
04/01:30pm 40.2 - - - - ENE 17 24 9 13 1009.6 1008.1 0.0
04/01:00pm 39.8 - - - - NNE 19 28 10 15 1010.3 1008.8 0.0
04/12:30pm 39.7 - - - - NNE 15 22 8 12 1010.9 1009.4 0.0
04/12:00pm 36.9 - - - - N 20 30 11 16 1011.3 1009.9 0.0
04/11:30am 36.9 - - - - N 20 30 11 16 1011.8 1010.4 0.0
04/11:00am 37.3 - - - - NNE 22 32 12 17 1012.1 1010.7 0.0
04/10:30am 35.2 - - - - NE 13 20 7 11 1012.5 1011.0 0.0
04/10:00am 33.0 - - - - NNE 11 15 6 8 1012.8 1011.3 0.0
04/09:30am 32.5 - - - - NNE 17 26 9 14 1012.8 1011.3 0.0
04/09:00am 31.4 - - - - NNE 17 22 9 12 1012.8 1011.3 0.0
04/08:30am 29.9 - - - - NNE 19 26 10 14 1012.6 1011.1 0.0
04/08:00am 29.6 - - - - NE 17 22 9 12 1012.5 1011.0 0.0
04/07:30am 28.7 - - - - NE 13 19 7 10 1012.1 1010.7 0.0
04/07:00am 27.7 - - - - E 13 19 7 10 1011.5 1010.1 0.0
04/06:30am 27.3 - - - - ENE 11 13 6 7 1011.6 1010.2 0.0
04/06:00am 27.9 - - - - ENE 13 19 7 10 1011.7 1010.3 0.0
04/05:30am 27.1 - - - - ENE 11 13 6 7 1011.4 1010.0 0.0
04/05:00am 27.8 - - - - ENE 13 15 7 8 1011.0 1009.6 0.0
04/04:30am 28.1 - - - - ENE 15 19 8 10 1011.0 1009.6 0.0
04/04:00am 28.4 - - - - ENE 13 20 7 11 1010.9 1009.4 0.0
04/03:30am 27.8 - - - - E 13 17 7 9 1010.9 1009.4 0.0
04/03:00am 27.8 - - - - E 11 15 6 8 1011.0 1009.6 0.0
04/02:30am 28.6 - - - - E 13 15 7 8 1011.1 1009.7 0.0
04/02:00am 27.5 - - - - ESE 9 11 5 6 1011.3 1009.9 0.0
04/01:30am 27.3 - - - - E 7 11 4 6 1011.7 1010.3 0.0
04/01:00am 27.6 - - - - E 7 9 4 5 1012.0 1010.6 0.0
04/12:30am 28.1 - - - - ESE 7 9 4 5 1012.1 1010.7 0.0
04/12:00am 29.2 - - - - ESE 9 9 5 5 1012.5 1011.0 0.0
 
Date/Time
EDT
Temp
°C
App
Temp
°C
Dew
Point
°C
Rel
Hum
%
Delta-T
°C
Wind Press
QNH
hPa
Press
MSL
hPa
Rain since
9am
mm
Dir  Spd
km/h
Gust
km/h
Spd
kts
Gust
kts
03/11:30pm 29.8 - - - - ESE 7 9 4 5 1012.7 1011.2 0.0
03/11:00pm 30.6 - - - - SSE 9 13 5 7 1012.6 1011.1 0.0
03/10:30pm 31.0 - - - - SSE 13 20 7 11 1012.4 1010.9 0.0
03/10:00pm 31.8 - - - - S 17 30 9 16 1012.6 1011.1 0.0
03/09:30pm 32.5 - - - - SW 9 11 5 6 1011.7 1010.3 0.0
03/09:00pm 33.3 - - - - SSW 9 13 5 7 1011.3 1009.9 0.0
03/08:30pm 33.9 - - - - SSW 9 11 5 6 1011.0 1009.6 0.0
03/08:00pm 34.7 - - - - SSW 11 15 6 8 1010.9 1009.4 0.0
03/07:30pm 35.7 - - - - SW 17 22 9 12 1010.6 1009.1 0.0
03/07:00pm 36.8 - - - - SSW 19 32 10 17 1010.1 1008.6 0.0
03/06:30pm 36.6 - - - - SW 20 30 11 16 1009.9 1008.4 0.0
03/06:00pm 38.5 - - - - SW 19 28 10 15 1009.6 1008.1 0.0
03/05:30pm 37.3 - - - - SW 17 26 9 14 1009.6 1008.1 0.0
03/05:00pm 39.2 - - - - SW 9 17 5 9 1009.7 1008.2 0.0
03/04:30pm 39.1 - - - - SSW 13 28 7 15 1009.7 1008.2 0.0
03/04:00pm 39.2 - - - - WSW 20 30 11 16 1009.9 1008.4 0.0
03/03:30pm 38.5 - - - - WSW 11 28 6 15 1010.1 1008.6 0.0
03/03:00pm 38.1 - - - - SW 15 32 8 17 1010.3 1008.8 0.0
03/02:30pm 38.6 - - - - WSW 20 37 11 20 1010.5 1009.0 0.0
03/02:00pm 39.7 - - - - W 15 20 8 11 1010.7 1009.2 0.0
03/01:30pm 38.3 - - - - W 24 41 13 22 1010.9 1009.4 0.0
03/01:00pm 38.0 - - - - WSW 17 35 9 19 1011.0 1009.6 0.0
03/12:30pm 36.9 - - - - WSW 15 22 8 12 1011.3 1009.9 0.0
03/12:00pm 36.9 - - - - SSW 9 19 5 10 1011.4 1010.0 0.0
03/11:30am 36.8 - - - - W 13 30 7 16 1011.6 1010.2 0.0
03/11:00am 35.7 - - - - N 15 20 8 11 1011.7 1010.3 0.0
03/10:30am 35.6 - - - - NE 17 24 9 13 1011.8 1010.4 0.0
03/10:00am 34.4 - - - - NE 19 28 10 15 1011.8 1010.4 0.0
03/09:30am 33.0 - - - - ENE 22 30 12 16 1012.1 1010.7 0.0
03/09:00am 31.5 - - - - NE 22 30 12 16 1012.2 1010.8 0.0
03/08:30am 30.9 - - - - ENE 15 22 8 12 1012.4 1010.9 0.0
03/08:00am 29.1 - - - - NE 15 20 8 11 1012.1 1010.7 0.0
03/07:30am 26.6 - - - - ENE 13 17 7 9 1012.0 1010.6 0.0
03/07:00am 24.1 - - - - ENE 11 13 6 7 1011.7 1010.3 0.0
03/06:30am 21.1 - - - - ENE 11 13 6 7 1011.4 1010.0 0.0
03/06:00am 20.8 - - - - ENE 11 13 6 7 1011.1 1009.7 0.0
03/05:30am 20.9 - - - - ENE 11 13 6 7 1010.8 1009.3 0.0
03/05:00am 21.3 - - - - ENE 13 15 7 8 1010.5 1009.0 0.0
03/04:30am 21.7 - - - - E 9 11 5 6 1010.4 1008.9 0.0
03/04:00am 23.2 - - - - ENE 13 17 7 9 1010.3 1008.8 0.0
03/03:30am 23.2 - - - - ENE 15 17 8 9 1010.4 1008.9 0.0
03/03:00am 22.3 - - - - E 9 11 5 6 1010.5 1009.0 0.0
03/02:30am 22.6 - - - - E 9 11 5 6 1010.8 1009.3 0.0
03/02:00am 23.6 - - - - ENE 11 13 6 7 1011.0 1009.6 0.0
03/01:30am 24.1 - - - - ENE 11 15 6 8 1011.1 1009.7 0.0
03/01:00am 25.0 - - - - E 13 15 7 8 1011.3 1009.9 0.0
03/12:30am 25.9 - - - - ENE 13 17 7 9 1011.6 1010.2 0.0
03/12:00am 25.6 - - - - ENE 13 17 7 9 1011.7 1010.3 0.0
 
Date/Time
EDT
Temp
°C
App
Temp
°C
Dew
Point
°C
Rel
Hum
%
Delta-T
°C
Wind Press
QNH
hPa
Press
MSL
hPa
Rain since
9am
mm
Dir  Spd
km/h
Gust
km/h
Spd
kts
Gust
kts
02/11:30pm 26.0 - - - - ENE 13 17 7 9 1011.7 1010.3 0.0
02/11:00pm 25.5 - - - - ENE 13 15 7 8 1011.7 1010.3 0.0
02/10:30pm 25.5 - - - - ENE 9 11 5 6 1011.8 1010.4 0.0
02/10:00pm 26.4 - - - - E 11 15 6 8 1011.3 1009.9 0.0
02/09:30pm 27.5 - - - - E 7 9 4 5 1011.4 1010.0 0.0

Other Formats:

Comma delimited format used in spreadsheet applications
http://www.bom.gov.au/fwo/IDN60801/IDN60801.94711.axf

JavaScript Object Notation format (JSON) in row-major order
http://www.bom.gov.au/fwo/IDN60801/IDN60801.94711.json